Time;durP1;ratioP1;P1;durP2;ratioP2;P2;SDS_P1;SDS_P2;PMS_P1;PMS_P2;Temp;Humidity;BMP_temperature;BMP_pressure;BME280_temperature;BME280_humidity;BME280_pressure;Samples;Min_cycle;Max_cycle;Signal;HPM_P1;HPM_P2
2020/12/05 00:00:50;;;;;;;3.50;2.83;;;7.50;99.90;;;;;;5002332;28;20211;-60
2020/12/05 00:03:16;;;;;;;7.50;4.18;;;7.30;99.90;;;;;;5000685;28;20423;-60
2020/12/05 00:05:43;;;;;;;2.45;2.25;;;7.40;99.90;;;;;;5001739;28;20209;-60
2020/12/05 00:08:10;;;;;;;2.65;2.45;;;7.30;99.90;;;;;;5016309;28;20226;-60
2020/12/05 00:10:37;;;;;;;5.57;3.45;;;7.50;99.90;;;;;;5020428;28;20287;-60
2020/12/05 00:13:03;;;;;;;5.50;3.40;;;7.40;99.90;;;;;;5010007;28;20213;-60
2020/12/05 00:15:30;;;;;;;4.43;3.42;;;7.40;99.90;;;;;;5001467;28;20504;-60
2020/12/05 00:17:56;;;;;;;5.28;3.17;;;7.20;99.90;;;;;;5012169;28;20276;-59
2020/12/05 00:20:23;;;;;;;7.03;3.50;;;7.40;99.90;;;;;;5021837;28;20212;-59
2020/12/05 00:22:49;;;;;;;5.60;3.15;;;7.50;99.90;;;;;;5014454;28;20264;-58
2020/12/05 00:25:16;;;;;;;4.75;3.03;;;7.80;99.90;;;;;;5014663;28;20201;-59
2020/12/05 00:27:43;;;;;;;8.40;6.13;;;7.70;99.90;;;;;;5008964;28;20372;-59
2020/12/05 00:30:09;;;;;;;4.95;3.10;;;7.50;99.90;;;;;;5021461;28;20243;-60
2020/12/05 00:32:36;;;;;;;3.88;2.90;;;7.50;99.90;;;;;;5014507;28;20206;-60
2020/12/05 00:35:03;;;;;;;4.65;3.10;;;7.30;99.90;;;;;;5002127;28;20811;-60
2020/12/05 00:37:30;;;;;;;5.25;3.35;;;7.50;99.90;;;;;;5001418;28;20209;-60
2020/12/05 00:39:58;;;;;;;4.38;3.50;;;7.70;99.90;;;;;;5002800;28;20213;-60
2020/12/05 00:42:26;;;;;;;4.88;3.58;;;7.30;99.90;;;;;;5001675;28;20209;-60
2020/12/05 00:44:54;;;;;;;7.75;4.25;;;6.80;99.90;;;;;;5001919;28;20205;-61
2020/12/05 00:47:21;;;;;;;4.28;3.72;;;6.50;99.90;;;;;;5001063;28;20238;-60
2020/12/05 00:49:47;;;;;;;5.22;4.10;;;6.40;99.90;;;;;;5000492;28;20301;-60
2020/12/05 00:52:14;;;;;;;8.55;4.50;;;6.30;99.90;;;;;;5001217;28;20412;-61
2020/12/05 00:54:40;;;;;;;4.18;3.40;;;6.10;99.90;;;;;;5001310;28;20539;-60
2020/12/05 00:57:07;;;;;;;4.00;3.58;;;6.10;99.90;;;;;;4988666;28;20201;-60
2020/12/05 00:59:33;;;;;;;5.03;3.30;;;6.40;99.90;;;;;;5001398;28;20236;-61
2020/12/05 01:02:00;;;;;;;4.97;3.22;;;6.40;99.90;;;;;;5001104;28;20276;-59
2020/12/05 01:04:28;;;;;;;5.25;4.45;;;6.70;99.90;;;;;;5002426;28;20217;-60
2020/12/05 01:06:56;;;;;;;7.22;4.93;;;6.60;99.90;;;;;;5003988;28;20523;-59
2020/12/05 01:09:22;;;;;;;4.97;3.67;;;6.40;99.90;;;;;;5001659;28;20309;-59
2020/12/05 01:11:49;;;;;;;7.05;5.80;;;6.10;99.90;;;;;;5016850;28;20478;-59
2020/12/05 01:14:16;;;;;;;4.35;3.10;;;6.00;99.90;;;;;;5000152;28;20205;-59
2020/12/05 01:16:45;;;;;;;4.55;3.00;;;6.50;99.90;;;;;;5001282;28;20214;-60
2020/12/05 01:19:12;;;;;;;6.75;4.93;;;6.80;99.90;;;;;;5001171;28;20550;-60
2020/12/05 01:21:38;;;;;;;5.25;3.78;;;6.50;99.90;;;;;;5011975;28;20216;-60
2020/12/05 01:24:05;;;;;;;4.93;4.50;;;6.70;99.90;;;;;;5003086;28;20511;-59
2020/12/05 01:26:32;;;;;;;5.10;3.75;;;6.90;99.90;;;;;;5001862;28;20555;-60
2020/12/05 01:28:58;;;;;;;6.45;4.63;;;6.60;99.90;;;;;;5000049;28;20221;-60
2020/12/05 01:31:25;;;;;;;4.65;3.78;;;6.70;99.90;;;;;;5008969;28;20211;-59
2020/12/05 01:33:51;;;;;;;6.25;4.78;;;6.70;99.90;;;;;;5008071;28;20210;-60
2020/12/05 01:36:18;;;;;;;4.65;3.40;;;6.70;99.90;;;;;;5000217;28;20443;-60
2020/12/05 01:38:44;;;;;;;3.78;3.40;;;6.80;99.90;;;;;;5000744;28;20527;-60
2020/12/05 01:41:11;;;;;;;2.72;2.50;;;6.90;99.90;;;;;;5012378;28;20200;-59
2020/12/05 01:43:40;;;;;;;7.85;6.50;;;6.80;99.90;;;;;;5013173;28;20454;-59
2020/12/05 01:46:39;;;;;;;5.60;4.80;;;6.80;99.90;;;;;;5015113;28;20205;-59
2020/12/05 01:49:11;;;;;;;9.38;5.18;;;6.90;99.90;;;;;;5013466;28;20796;-60
2020/12/05 01:51:38;;;;;;;4.90;4.00;;;6.90;99.90;;;;;;5000505;28;20268;-60
2020/12/05 01:54:07;;;;;;;8.30;4.78;;;6.80;99.90;;;;;;5012677;28;20385;-59
2020/12/05 01:56:34;;;;;;;9.32;5.25;;;6.90;99.90;;;;;;5004665;28;20700;-59
2020/12/05 01:59:00;;;;;;;8.05;4.72;;;6.80;99.90;;;;;;5013251;28;20389;-60
2020/12/05 02:01:29;;;;;;;5.85;4.40;;;6.90;99.90;;;;;;5012960;28;20263;-59
2020/12/05 02:04:03;;;;;;;8.95;4.95;;;6.80;99.90;;;;;;5006438;28;20218;-61
2020/12/05 02:07:03;;;;;;;5.88;4.43;;;6.90;99.90;;;;;;5018202;28;20204;-58
2020/12/05 02:09:34;;;;;;;8.80;6.15;;;7.10;99.90;;;;;;5019228;28;20549;-60
2020/12/05 02:12:04;;;;;;;8.65;6.47;;;7.10;99.90;;;;;;5005566;28;20514;-60
2020/12/05 02:14:31;;;;;;;5.25;4.30;;;7.30;99.90;;;;;;5018747;28;20216;-62
2020/12/05 02:17:02;;;;;;;5.75;3.92;;;7.20;99.90;;;;;;5008821;28;20219;-60
2020/12/05 02:19:42;;;;;;;7.22;5.35;;;7.20;99.90;;;;;;5017248;28;20253;-60
2020/12/05 02:22:12;;;;;;;11.73;5.70;;;7.30;99.90;;;;;;5004497;28;20209;-60
2020/12/05 02:24:39;;;;;;;7.00;5.85;;;7.10;99.90;;;;;;5002542;28;20209;-59
2020/12/05 02:27:07;;;;;;;7.90;5.30;;;7.10;99.90;;;;;;5014469;28;20209;-60
2020/12/05 02:29:36;;;;;;;10.00;6.30;;;7.10;99.90;;;;;;5010295;28;20467;-59
2020/12/05 02:32:05;;;;;;;10.25;6.88;;;7.20;99.90;;;;;;5005935;28;20205;-60
2020/12/05 02:34:32;;;;;;;5.28;4.20;;;7.30;99.90;;;;;;5003366;28;20252;-60
2020/12/05 02:37:06;;;;;;;5.82;4.90;;;7.20;99.90;;;;;;5004638;28;20233;-60
2020/12/05 02:39:34;;;;;;;8.15;6.05;;;7.10;99.90;;;;;;5005149;28;20205;-60
2020/12/05 02:42:01;;;;;;;9.00;5.93;;;7.00;99.90;;;;;;4991050;28;20281;-60
2020/12/05 02:44:28;;;;;;;7.93;5.43;;;6.90;99.90;;;;;;5003313;28;20294;-61
2020/12/05 02:46:58;;;;;;;8.23;5.95;;;6.80;99.90;;;;;;5016594;28;20241;-60
2020/12/05 02:49:24;;;;;;;7.38;6.25;;;6.80;99.90;;;;;;5017718;28;20236;-60
2020/12/05 02:51:51;;;;;;;10.95;5.95;;;6.70;99.90;;;;;;5011679;28;20545;-60
2020/12/05 02:54:17;;;;;;;8.50;6.88;;;6.60;99.90;;;;;;5015080;28;20268;-61
2020/12/05 02:56:44;;;;;;;6.75;5.95;;;6.70;99.90;;;;;;5016786;28;20747;-60
2020/12/05 02:59:10;;;;;;;6.68;5.97;;;6.70;99.90;;;;;;5004201;28;20218;-60
2020/12/05 03:01:37;;;;;;;11.40;5.25;;;6.70;99.90;;;;;;5005320;28;20224;-60
2020/12/05 03:04:03;;;;;;;7.47;5.68;;;6.70;99.90;;;;;;5019090;28;20201;-61
2020/12/05 03:06:30;;;;;;;6.90;5.20;;;6.80;99.90;;;;;;5014594;28;20206;-60
2020/12/05 03:08:56;;;;;;;8.07;5.85;;;6.70;99.90;;;;;;5003545;28;20214;-60
2020/12/05 03:11:23;;;;;;;9.45;6.53;;;6.90;99.90;;;;;;4989678;28;20227;-60
2020/12/05 03:13:49;;;;;;;8.23;6.10;;;6.90;99.90;;;;;;5003058;28;20504;-60
2020/12/05 03:16:16;;;;;;;11.57;7.20;;;6.80;99.90;;;;;;5020154;28;20196;-60
2020/12/05 03:18:43;;;;;;;9.73;6.85;;;6.90;99.90;;;;;;5012413;28;20404;-60
2020/12/05 03:21:09;;;;;;;8.60;6.65;;;7.00;99.90;;;;;;5004494;28;20210;-60
2020/12/05 03:23:36;;;;;;;9.63;7.50;;;6.70;99.90;;;;;;5014185;28;20216;-61
2020/12/05 03:26:02;;;;;;;7.57;6.15;;;6.70;99.90;;;;;;5002704;28;20225;-60
2020/12/05 03:28:29;;;;;;;9.90;7.15;;;6.90;99.90;;;;;;5015024;28;20205;-61
2020/12/05 03:30:55;;;;;;;11.52;8.52;;;6.90;99.90;;;;;;5002511;28;20349;-60
2020/12/05 03:33:23;;;;;;;14.68;6.65;;;6.90;99.90;;;;;;5001582;28;20551;-61
2020/12/05 03:35:49;;;;;;;11.13;7.30;;;6.80;99.90;;;;;;5004591;28;20296;-61
2020/12/05 03:38:16;;;;;;;7.70;4.95;;;6.90;99.90;;;;;;5002137;28;20209;-61
2020/12/05 03:40:42;;;;;;;11.93;7.45;;;7.00;99.90;;;;;;5002057;28;20210;-59
2020/12/05 03:43:09;;;;;;;15.95;7.05;;;7.00;99.90;;;;;;5002355;28;20208;-60
2020/12/05 03:45:35;;;;;;;10.93;6.40;;;7.00;99.90;;;;;;5002765;28;20204;-60
2020/12/05 03:48:02;;;;;;;10.00;7.20;;;7.00;99.90;;;;;;5005804;28;20251;-60
2020/12/05 03:50:29;;;;;;;10.57;7.65;;;7.00;99.90;;;;;;5005047;28;20240;-60
2020/12/05 03:52:55;;;;;;;8.95;6.63;;;7.20;99.90;;;;;;5014830;28;20212;-61
2020/12/05 03:55:22;;;;;;;11.63;6.88;;;7.00;99.90;;;;;;5007456;28;20211;-60
2020/12/05 03:57:48;;;;;;;12.48;8.80;;;7.20;99.90;;;;;;5012123;28;20213;-60
2020/12/05 04:00:15;;;;;;;12.35;8.00;;;7.00;99.90;;;;;;5002813;28;20411;-60
2020/12/05 04:02:41;;;;;;;9.38;6.45;;;7.00;99.90;;;;;;5002595;28;20210;-60
2020/12/05 04:05:08;;;;;;;9.73;6.65;;;7.10;99.90;;;;;;5000328;28;20205;-60
2020/12/05 04:07:34;;;;;;;11.80;8.15;;;6.90;99.90;;;;;;5002039;28;20206;-60
2020/12/05 04:10:01;;;;;;;9.45;6.35;;;7.00;99.90;;;;;;5002172;28;20259;-60
2020/12/05 04:12:27;;;;;;;7.72;6.90;;;7.00;99.90;;;;;;5001216;28;20213;-60
2020/12/05 04:14:54;;;;;;;11.65;5.65;;;7.00;99.90;;;;;;5002836;28;20209;-60
2020/12/05 04:17:21;;;;;;;6.82;5.45;;;7.00;99.90;;;;;;5001699;28;20209;-61
2020/12/05 04:19:48;;;;;;;8.20;6.55;;;7.10;99.90;;;;;;5013685;28;20603;-60
2020/12/05 04:22:15;;;;;;;8.85;6.82;;;7.30;99.90;;;;;;5010513;28;20217;-60
2020/12/05 04:24:41;;;;;;;12.65;6.25;;;7.20;99.90;;;;;;5017371;28;20210;-60
2020/12/05 04:27:08;;;;;;;9.00;6.95;;;7.30;99.90;;;;;;5019533;28;20212;-60
2020/12/05 04:29:34;;;;;;;7.78;6.78;;;7.20;99.90;;;;;;5006006;28;20240;-61
2020/12/05 04:32:01;;;;;;;15.52;7.43;;;7.00;99.90;;;;;;4989596;28;20213;-60
2020/12/05 04:34:28;;;;;;;6.30;5.63;;;7.10;99.90;;;;;;5001509;28;20206;-60
2020/12/05 04:36:55;;;;;;;8.15;6.57;;;7.30;99.90;;;;;;5001801;28;20300;-60
2020/12/05 04:39:21;;;;;;;8.90;6.00;;;7.50;99.90;;;;;;5016641;28;20562;-61
2020/12/05 04:41:48;;;;;;;11.45;6.80;;;7.50;99.90;;;;;;5013283;28;20408;-61
2020/12/05 04:44:15;;;;;;;9.75;6.50;;;7.50;99.90;;;;;;5001758;28;20373;-60
2020/12/05 04:46:42;;;;;;;10.48;7.50;;;7.60;99.90;;;;;;5000173;28;20249;-59
2020/12/05 04:49:09;;;;;;;9.93;7.35;;;7.30;99.90;;;;;;5009329;28;20249;-60
2020/12/05 04:51:37;;;;;;;8.73;5.90;;;7.30;99.90;;;;;;5005295;28;20204;-59
2020/12/05 04:54:05;;;;;;;9.55;6.72;;;7.10;99.90;;;;;;5001865;28;20240;-60
2020/12/05 04:56:37;;;;;;;8.63;6.57;;;7.40;99.90;;;;;;5003752;28;20197;-59
2020/12/05 04:59:08;;;;;;;11.40;7.45;;;7.40;99.90;;;;;;5011938;28;20213;-60
2020/12/05 05:01:37;;;;;;;8.30;6.32;;;7.40;99.90;;;;;;5003886;28;20534;-60
2020/12/05 05:04:05;;;;;;;9.65;6.28;;;7.60;99.90;;;;;;5013661;28;20504;-59
2020/12/05 05:06:32;;;;;;;10.52;7.80;;;7.30;99.90;;;;;;5017677;28;20215;-60
2020/12/05 05:08:59;;;;;;;21.98;7.20;;;7.20;99.90;;;;;;5001705;28;20231;-61
2020/12/05 05:11:27;;;;;;;9.52;7.45;;;7.20;99.90;;;;;;5000316;28;20210;-60
2020/12/05 05:14:02;;;;;;;10.25;6.38;;;7.10;99.90;;;;;;5000712;28;20224;-59
2020/12/05 05:16:29;;;;;;;9.52;6.40;;;7.20;99.90;;;;;;4988985;28;20209;-60
2020/12/05 05:19:07;;;;;;;9.82;7.15;;;7.30;99.90;;;;;;5015541;28;20212;-60
2020/12/05 05:21:36;;;;;;;12.02;6.90;;;7.40;99.90;;;;;;5002097;28;20221;-60
2020/12/05 05:24:18;;;;;;;11.23;7.15;;;7.40;99.90;;;;;;4991863;28;20389;-60
2020/12/05 05:27:01;;;;;;;9.15;7.80;;;7.50;99.90;;;;;;5000410;28;20210;-60
2020/12/05 05:29:32;;;;;;;9.32;7.15;;;7.50;99.90;;;;;;4989592;28;20214;-63
2020/12/05 05:34:31;;;;;;;11.50;7.32;;;7.50;99.90;;;;;;4990491;28;20198;-60
2020/12/05 05:36:58;;;;;;;11.15;7.25;;;7.40;99.90;;;;;;5000270;28;20259;-59
2020/12/05 05:39:25;;;;;;;9.00;6.90;;;7.40;99.90;;;;;;4998215;28;20220;-59
2020/12/05 05:41:55;;;;;;;12.48;7.57;;;7.30;99.90;;;;;;5001255;28;20495;-59
2020/12/05 05:44:27;;;;;;;10.90;7.82;;;7.50;99.90;;;;;;4999636;28;20296;-60
2020/12/05 05:46:55;;;;;;;7.57;5.90;;;7.40;99.90;;;;;;5012878;28;20558;-59
2020/12/05 05:49:33;;;;;;;11.13;6.70;;;7.70;99.90;;;;;;5015876;28;20418;-60
2020/12/05 05:52:01;;;;;;;11.18;7.70;;;7.80;99.90;;;;;;5004697;28;20271;-59
2020/12/05 05:54:34;;;;;;;8.57;6.30;;;7.80;99.90;;;;;;4994894;28;20208;-59
2020/12/05 05:57:11;;;;;;;9.73;7.60;;;7.80;99.90;;;;;;4999880;28;20209;-59
2020/12/05 05:59:40;;;;;;;10.25;7.30;;;7.80;99.90;;;;;;5008735;28;20252;-59
2020/12/05 06:02:10;;;;;;;7.95;5.93;;;8.00;99.90;;;;;;5000153;28;20648;-59
2020/12/05 06:04:41;;;;;;;8.55;5.65;;;7.90;99.90;;;;;;5007829;28;20197;-59
2020/12/05 06:07:13;;;;;;;10.68;7.22;;;7.90;99.90;;;;;;5020394;28;20224;-59
2020/12/05 06:09:42;;;;;;;12.20;7.95;;;7.90;99.90;;;;;;5000271;28;20591;-60
2020/12/05 06:12:11;;;;;;;9.23;8.15;;;7.90;99.90;;;;;;5000834;28;20206;-59
2020/12/05 06:14:41;;;;;;;11.02;7.60;;;7.80;99.90;;;;;;5003628;28;20215;-60
2020/12/05 06:17:10;;;;;;;10.60;6.63;;;7.90;99.90;;;;;;5019610;28;20255;-59
2020/12/05 06:19:40;;;;;;;9.73;6.78;;;7.90;99.90;;;;;;5001748;28;20277;-60
2020/12/05 06:22:46;;;;;;;12.20;7.72;;;8.00;99.90;;;;;;5000625;28;20399;-60
2020/12/05 06:25:15;;;;;;;11.43;7.18;;;7.90;99.90;;;;;;5000251;28;20214;-60
2020/12/05 06:27:46;;;;;;;9.10;8.00;;;7.90;99.90;;;;;;5013005;28;20426;-59
2020/12/05 06:30:13;;;;;;;10.90;6.70;;;8.00;99.90;;;;;;4999449;28;20559;-60
2020/12/05 06:32:48;;;;;;;11.82;7.45;;;7.80;99.90;;;;;;5011899;28;20208;-59
2020/12/05 06:35:17;;;;;;;9.27;8.32;;;7.90;99.90;;;;;;4997618;28;20312;-60
2020/12/05 06:37:44;;;;;;;10.48;6.20;;;8.00;99.90;;;;;;5011204;28;20216;-60
2020/12/05 06:40:11;;;;;;;7.47;6.63;;;7.90;99.90;;;;;;5001528;28;20271;-60
2020/12/05 06:42:40;;;;;;;11.48;6.28;;;7.80;99.90;;;;;;5000764;28;20507;-60
2020/12/05 06:45:06;;;;;;;9.05;8.07;;;8.00;99.90;;;;;;4999548;28;20229;-60
2020/12/05 06:47:33;;;;;;;8.25;6.30;;;7.80;99.90;;;;;;5005496;28;20241;-60
2020/12/05 06:50:01;;;;;;;8.20;5.95;;;7.90;99.90;;;;;;5014398;28;20237;-60
2020/12/05 06:52:27;;;;;;;11.45;7.00;;;8.10;99.90;;;;;;5008442;28;20206;-60
2020/12/05 06:55:11;;;;;;;6.50;5.60;;;8.10;99.90;;;;;;5008313;28;20210;-60
2020/12/05 06:57:38;;;;;;;13.07;6.88;;;8.00;99.90;;;;;;5011158;28;20217;-60
2020/12/05 07:00:11;;;;;;;10.73;5.60;;;8.00;99.90;;;;;;5011800;28;20210;-60
2020/12/05 07:02:38;;;;;;;11.27;7.40;;;8.20;99.90;;;;;;4995938;28;20214;-61
2020/12/05 07:05:22;;;;;;;10.10;6.50;;;8.10;99.90;;;;;;5012356;28;20396;-61
2020/12/05 07:07:56;;;;;;;9.60;5.22;;;8.20;99.90;;;;;;5004791;28;20223;-60
2020/12/05 07:10:54;;;;;;;11.25;6.65;;;8.10;99.90;;;;;;5006797;28;20379;-60
2020/12/05 07:13:28;;;;;;;8.60;6.03;;;8.20;99.90;;;;;;5003415;28;20205;-60
2020/12/05 07:16:13;;;;;;;7.15;5.10;;;8.20;99.90;;;;;;5002183;28;20206;-60
2020/12/05 07:18:42;;;;;;;9.30;5.82;;;8.50;99.90;;;;;;5002129;28;20206;-60
2020/12/05 07:21:09;;;;;;;8.93;6.43;;;8.30;99.90;;;;;;5002225;28;20217;-60
2020/12/05 07:23:36;;;;;;;8.90;4.78;;;8.60;99.90;;;;;;5003626;28;20221;-60
2020/12/05 07:26:03;;;;;;;14.30;5.95;;;8.40;99.90;;;;;;5007488;28;20434;-60
2020/12/05 07:28:30;;;;;;;8.82;5.47;;;8.50;99.90;;;;;;5002277;28;20370;-60
2020/12/05 07:30:56;;;;;;;9.75;5.05;;;8.40;99.90;;;;;;5001248;28;20279;-60
2020/12/05 07:33:23;;;;;;;8.13;5.53;;;8.50;99.90;;;;;;5010421;28;20248;-60
2020/12/05 07:36:17;;;;;;;12.80;6.85;;;8.60;99.90;;;;;;5015573;28;20225;-60
2020/12/05 07:38:46;;;;;;;11.02;8.45;;;8.60;99.90;;;;;;5017345;28;20255;-60
2020/12/05 07:41:19;;;;;;;9.00;4.85;;;8.60;99.90;;;;;;5018444;28;20201;-60
2020/12/05 07:43:46;;;;;;;7.60;5.70;;;8.70;99.90;;;;;;5012609;28;20276;-61
2020/12/05 07:46:18;;;;;;;5.18;4.60;;;8.50;99.90;;;;;;5009521;28;20210;-61
2020/12/05 07:48:44;;;;;;;8.73;6.30;;;8.70;99.90;;;;;;4997559;28;20269;-61
2020/12/05 07:51:13;;;;;;;11.25;7.85;;;8.80;99.90;;;;;;5001309;28;20241;-60
2020/12/05 07:53:40;;;;;;;5.13;4.60;;;8.60;99.90;;;;;;4989412;28;20207;-60
2020/12/05 07:56:15;;;;;;;15.20;5.93;;;8.70;99.90;;;;;;5011610;28;20388;-60
2020/12/05 07:58:56;;;;;;;30.77;12.65;;;8.90;99.90;;;;;;5004501;28;20281;-61
2020/12/05 08:01:25;;;;;;;6.80;6.20;;;9.00;99.90;;;;;;5011776;28;20419;-60
2020/12/05 08:04:24;;;;;;;8.80;7.45;;;9.20;99.90;;;;;;5001941;28;20218;-60
2020/12/05 08:07:05;;;;;;;12.88;8.65;;;9.20;99.90;;;;;;5005289;28;20385;-60
2020/12/05 08:09:36;;;;;;;9.32;7.47;;;9.30;99.90;;;;;;5001350;28;20230;-60
2020/12/05 08:12:34;;;;;;;9.88;5.80;;;9.40;99.90;;;;;;5009567;28;20531;-60
2020/12/05 08:15:02;;;;;;;5.85;3.60;;;9.40;99.90;;;;;;5003685;28;20218;-61
2020/12/05 08:17:36;;;;;;;9.45;5.75;;;9.50;99.90;;;;;;5003695;28;20384;-61
2020/12/05 08:20:04;;;;;;;5.22;4.63;;;9.50;99.90;;;;;;5002090;28;20265;-61
2020/12/05 08:22:31;;;;;;;11.48;6.10;;;9.20;99.90;;;;;;5003891;28;20226;-60
2020/12/05 08:24:58;;;;;;;10.23;4.90;;;9.10;99.90;;;;;;5001689;28;20527;-61
2020/12/05 08:27:27;;;;;;;9.10;6.47;;;9.00;99.90;;;;;;5005885;28;20408;-61
2020/12/05 08:29:56;;;;;;;6.82;5.43;;;9.00;99.90;;;;;;5004908;28;20237;-61
2020/12/05 08:32:24;;;;;;;10.85;5.53;;;9.00;99.90;;;;;;5000799;28;20351;-62
2020/12/05 08:35:00;;;;;;;7.30;6.03;;;8.80;99.90;;;;;;5006280;28;20215;-61
2020/12/05 08:37:27;;;;;;;8.77;5.05;;;8.70;99.90;;;;;;4997286;28;20223;-62
2020/12/05 08:39:55;;;;;;;8.40;5.45;;;8.60;99.90;;;;;;5018393;28;20404;-61
2020/12/05 08:42:21;;;;;;;9.70;6.47;;;8.60;99.90;;;;;;5012672;28;20210;-62
2020/12/05 08:44:48;;;;;;;10.57;6.47;;;9.00;99.90;;;;;;5001859;28;20214;-61
2020/12/05 08:47:15;;;;;;;8.32;5.60;;;8.80;99.90;;;;;;5012244;28;20341;-61
2020/12/05 08:49:43;;;;;;;8.55;5.28;;;8.90;99.90;;;;;;5014288;28;20238;-61
2020/12/05 08:52:11;;;;;;;6.88;5.05;;;9.20;99.90;;;;;;5011051;28;20305;-61
2020/12/05 08:54:49;;;;;;;6.45;4.18;;;9.20;99.90;;;;;;5009293;28;20204;-62
2020/12/05 08:57:16;;;;;;;8.18;4.63;;;9.40;99.90;;;;;;5006150;28;20206;-61
2020/12/05 08:59:44;;;;;;;9.63;5.15;;;9.60;99.90;;;;;;5003478;28;20211;-60
2020/12/05 09:02:11;;;;;;;7.10;4.90;;;9.40;99.90;;;;;;4999349;28;20313;-60
2020/12/05 09:04:38;;;;;;;6.38;4.95;;;9.50;99.90;;;;;;5006212;28;20229;-60
2020/12/05 09:07:11;;;;;;;6.45;4.95;;;9.60;99.90;;;;;;5019653;28;20202;-60
2020/12/05 09:09:39;;;;;;;8.00;5.68;;;9.50;99.90;;;;;;5000837;28;20481;-61
2020/12/05 09:12:14;;;;;;;5.82;4.60;;;9.50;99.90;;;;;;5000620;28;20233;-60
2020/12/05 09:14:42;;;;;;;10.20;4.90;;;9.70;99.90;;;;;;4998037;28;20214;-62
2020/12/05 09:17:27;;;;;;;9.68;5.30;;;9.70;99.90;;;;;;5001728;28;20214;-62
2020/12/05 09:20:17;;;;;;;12.07;5.45;;;9.70;99.90;;;;;;5000200;28;20223;-61
2020/12/05 09:22:49;;;;;;;7.00;4.75;;;9.60;99.90;;;;;;5000381;28;20230;-62
2020/12/05 09:25:36;;;;;;;6.70;4.55;;;9.60;99.90;;;;;;5000182;28;20206;-61
2020/12/05 09:28:14;;;;;;;6.25;5.18;;;9.80;99.90;;;;;;5000307;28;20214;-61
2020/12/05 09:30:40;;;;;;;6.07;4.07;;;10.00;99.90;;;;;;5001069;28;20679;-61
2020/12/05 09:33:09;;;;;;;9.00;4.60;;;10.00;99.90;;;;;;5000794;28;20212;-61
2020/12/05 09:35:37;;;;;;;5.85;4.20;;;9.80;99.90;;;;;;5009399;28;20238;-62
2020/12/05 09:38:04;;;;;;;9.13;4.10;;;10.10;99.90;;;;;;5003598;28;20298;-61
2020/12/05 09:40:31;;;;;;;5.57;5.00;;;10.10;99.90;;;;;;5000420;28;20232;-61
2020/12/05 09:42:59;;;;;;;10.38;5.88;;;10.00;99.90;;;;;;5000510;28;20394;-61
2020/12/05 09:45:26;;;;;;;10.68;6.65;;;10.00;99.90;;;;;;4992807;28;20220;-62
2020/12/05 09:47:52;;;;;;;7.57;5.00;;;10.00;99.90;;;;;;5009825;28;20508;-60
2020/12/05 09:50:20;;;;;;;5.00;4.50;;;10.20;99.90;;;;;;5014836;28;20243;-61
2020/12/05 09:52:47;;;;;;;6.80;3.75;;;10.20;99.90;;;;;;5010789;28;20206;-61
2020/12/05 09:55:14;;;;;;;7.88;4.75;;;10.20;99.90;;;;;;5005278;28;20207;-60
2020/12/05 09:57:41;;;;;;;5.50;4.00;;;10.30;99.90;;;;;;5020172;28;20208;-60
2020/12/05 10:00:10;;;;;;;6.53;3.88;;;10.40;99.90;;;;;;5004173;28;20292;-61
2020/12/05 10:02:38;;;;;;;6.88;3.40;;;10.50;99.90;;;;;;5000179;28;20207;-62
2020/12/05 10:05:09;;;;;;;9.20;3.45;;;10.60;99.90;;;;;;5010853;28;20214;-60
2020/12/05 10:07:39;;;;;;;7.68;4.75;;;10.50;99.90;;;;;;4986844;28;20469;-61
2020/12/05 10:10:07;;;;;;;7.20;4.28;;;10.40;99.90;;;;;;5007579;28;20239;-61
2020/12/05 10:12:34;;;;;;;4.28;3.80;;;10.30;99.90;;;;;;5001085;28;20208;-62
2020/12/05 10:15:02;;;;;;;6.18;4.30;;;10.10;99.90;;;;;;5008159;28;20208;-61
2020/12/05 10:17:28;;;;;;;6.22;5.07;;;10.10;99.90;;;;;;5008156;28;20204;-62
2020/12/05 10:19:55;;;;;;;8.18;6.28;;;10.10;99.90;;;;;;4999744;28;20211;-60
2020/12/05 10:22:21;;;;;;;9.15;5.43;;;10.10;99.90;;;;;;4999874;28;20227;-61
2020/12/05 10:24:49;;;;;;;10.98;4.88;;;10.20;99.90;;;;;;5000507;28;20568;-61
2020/12/05 10:27:16;;;;;;;8.07;5.75;;;10.10;99.90;;;;;;5003194;28;20207;-61
2020/12/05 10:29:43;;;;;;;8.48;5.68;;;10.10;99.90;;;;;;5010368;28;20231;-60
2020/12/05 10:32:09;;;;;;;8.80;5.80;;;10.20;99.90;;;;;;5010447;28;20219;-60
2020/12/05 10:34:36;;;;;;;10.18;5.80;;;10.10;99.90;;;;;;5004067;28;20208;-61
2020/12/05 10:37:02;;;;;;;6.68;5.03;;;10.00;99.90;;;;;;5011421;28;20406;-61
2020/12/05 10:39:29;;;;;;;7.80;6.10;;;10.00;99.90;;;;;;5010172;28;20210;-62
2020/12/05 10:41:55;;;;;;;8.35;4.90;;;10.10;99.90;;;;;;5004973;28;20233;-60
2020/12/05 10:44:22;;;;;;;10.98;4.82;;;10.10;99.90;;;;;;5010157;28;20249;-59
2020/12/05 10:46:49;;;;;;;12.38;6.88;;;10.10;99.90;;;;;;5004349;28;20279;-61
2020/12/05 10:49:18;;;;;;;9.63;6.35;;;10.10;99.90;;;;;;5017916;28;20246;-61
2020/12/05 10:51:46;;;;;;;8.52;7.63;;;10.20;99.90;;;;;;5003985;28;20240;-61
2020/12/05 10:54:13;;;;;;;9.52;7.13;;;10.30;99.90;;;;;;5023392;28;20277;-61
2020/12/05 10:56:40;;;;;;;7.90;6.32;;;10.20;99.90;;;;;;5004199;28;20270;-60
2020/12/05 10:59:08;;;;;;;6.75;4.97;;;10.40;99.90;;;;;;5003004;28;20225;-60
2020/12/05 11:01:35;;;;;;;9.45;5.75;;;10.50;99.90;;;;;;5002218;28;20219;-61
2020/12/05 11:04:01;;;;;;;8.88;6.90;;;10.60;99.90;;;;;;5004900;28;20223;-61
2020/12/05 11:06:28;;;;;;;6.05;4.13;;;10.70;99.90;;;;;;5015497;28;20204;-60
2020/12/05 11:08:55;;;;;;;8.55;3.97;;;11.00;99.90;;;;;;5016920;28;20215;-61
2020/12/05 11:11:22;;;;;;;8.38;4.97;;;11.20;99.90;;;;;;5001515;28;20239;-61
2020/12/05 11:13:50;;;;;;;6.97;4.07;;;11.30;99.90;;;;;;5002064;28;20284;-61
2020/12/05 11:16:21;;;;;;;6.18;4.43;;;11.50;99.90;;;;;;5006282;28;20207;-62
2020/12/05 11:18:48;;;;;;;11.95;7.53;;;11.60;99.90;;;;;;5010845;28;20239;-61
2020/12/05 11:21:15;;;;;;;9.68;6.50;;;11.80;99.90;;;;;;5001462;28;20239;-62
2020/12/05 11:23:42;;;;;;;4.75;3.55;;;11.70;99.90;;;;;;5003177;28;20209;-60
2020/12/05 11:26:09;;;;;;;7.97;4.30;;;11.70;99.90;;;;;;5002317;28;20213;-62
2020/12/05 11:28:39;;;;;;;10.48;6.68;;;11.70;99.90;;;;;;5002378;28;20205;-60
2020/12/05 11:31:06;;;;;;;7.93;5.30;;;11.30;99.90;;;;;;5002836;28;20247;-58
2020/12/05 11:33:32;;;;;;;11.98;5.90;;;10.80;99.90;;;;;;4989074;28;20311;-60
2020/12/05 11:35:59;;;;;;;11.20;6.97;;;10.70;99.90;;;;;;5006011;28;20518;-62
2020/12/05 11:38:26;;;;;;;13.13;7.40;;;10.70;99.90;;;;;;5003094;28;20275;-60
2020/12/05 11:40:54;;;;;;;7.70;5.95;;;10.70;99.90;;;;;;4998227;28;20220;-60
2020/12/05 11:43:23;;;;;;;11.63;6.15;;;10.70;99.90;;;;;;5002429;28;20208;-60
2020/12/05 11:45:50;;;;;;;15.57;6.15;;;10.80;99.90;;;;;;5011928;28;20394;-60
2020/12/05 11:48:16;;;;;;;10.32;6.10;;;10.90;99.90;;;;;;5012649;28;20247;-60
2020/12/05 11:50:43;;;;;;;9.90;4.75;;;11.00;99.90;;;;;;4996323;28;20241;-60
2020/12/05 11:53:10;;;;;;;11.30;5.40;;;11.10;99.90;;;;;;5002754;28;20211;-60
2020/12/05 11:55:36;;;;;;;22.08;9.98;;;11.20;99.90;;;;;;5001242;28;20212;-61
2020/12/05 11:58:03;;;;;;;18.20;9.55;;;11.10;99.90;;;;;;5000466;28;20450;-59
2020/12/05 12:00:29;;;;;;;17.77;9.77;;;11.20;99.90;;;;;;5000826;28;20238;-61
2020/12/05 12:02:56;;;;;;;13.27;6.05;;;11.30;99.90;;;;;;5002398;28;20212;-61
2020/12/05 12:05:22;;;;;;;8.27;5.88;;;11.30;99.90;;;;;;5002233;28;20411;-60
2020/12/05 12:07:50;;;;;;;6.15;4.05;;;11.30;99.90;;;;;;5020035;28;20239;-61
2020/12/05 12:10:17;;;;;;;5.32;4.80;;;11.40;99.90;;;;;;5010403;28;20283;-60
2020/12/05 12:12:44;;;;;;;10.52;5.20;;;11.40;99.90;;;;;;5004861;28;20255;-61
2020/12/05 12:15:14;;;;;;;12.93;7.60;;;11.40;99.90;;;;;;5020581;28;20208;-60
2020/12/05 12:17:42;;;;;;;8.80;5.65;;;11.60;99.90;;;;;;5003286;28;20215;-62
2020/12/05 12:20:09;;;;;;;9.52;6.25;;;11.60;99.90;;;;;;5001787;28;20274;-61
2020/12/05 12:22:36;;;;;;;8.57;5.47;;;11.70;99.90;;;;;;5013363;28;20215;-60
2020/12/05 12:25:04;;;;;;;10.05;5.20;;;11.60;99.90;;;;;;5013873;28;20212;-61
2020/12/05 12:27:31;;;;;;;8.73;6.00;;;11.50;99.90;;;;;;5013323;28;20421;-61
2020/12/05 12:29:58;;;;;;;9.60;5.40;;;11.40;99.90;;;;;;5007156;28;20379;-62
2020/12/05 12:32:24;;;;;;;12.07;5.93;;;11.30;99.90;;;;;;5018002;28;20211;-61
2020/12/05 12:34:51;;;;;;;5.75;4.43;;;11.20;99.90;;;;;;5013607;28;20228;-61
2020/12/05 12:37:19;;;;;;;6.40;4.90;;;11.10;99.90;;;;;;5013403;28;20538;-59
2020/12/05 12:39:47;;;;;;;8.52;5.13;;;11.10;99.90;;;;;;5001225;28;20218;-58
2020/12/05 12:42:17;;;;;;;11.48;5.43;;;11.00;99.90;;;;;;5013950;28;20259;-60
2020/12/05 12:44:43;;;;;;;7.88;6.10;;;11.00;99.90;;;;;;4995116;28;20205;-62
2020/12/05 12:47:34;;;;;;;6.03;4.70;;;11.00;99.90;;;;;;5013616;28;20235;-61
2020/12/05 12:50:00;;;;;;;13.38;6.78;;;11.00;99.90;;;;;;5014348;28;20263;-60
2020/12/05 12:52:27;;;;;;;7.38;5.25;;;11.00;99.90;;;;;;5016130;28;20553;-61
2020/12/05 12:54:54;;;;;;;9.75;6.25;;;11.20;99.90;;;;;;5016963;28;20200;-61
2020/12/05 12:57:24;;;;;;;10.32;6.45;;;11.20;99.90;;;;;;5010579;28;20209;-64
2020/12/05 12:59:51;;;;;;;8.25;5.15;;;11.20;99.90;;;;;;4993939;28;20216;-62
2020/12/05 13:02:17;;;;;;;10.25;5.88;;;11.10;99.90;;;;;;5000107;28;20221;-61